Terminal Aerodrome Forecast
Issued by NWS Denver/Boulder, CO

Home | Current Version | Previous Version | Text Only | Print | Product List | Glossary On
Versions: 1 2 3 4 5 6 7 8 9 10 11 12 13 14 15 16 17 18 19 20 21 22 23 24 25 26 27 28 29 30 31 32 33 34 35 36 37 38 39 40 41 42 43 44 45 46 47 48 49 50
891
FTUS45 KBOU 072036 AAA
TAFDEN
TAF AMD
KDEN 072036Z 0721/0824 03008KT 5SM BR VCSH SCT015 BKN035
     FM072300 06007KT P6SM SCT025 BKN040
     FM080100 14005KT P6SM SCT050 SCT070
     FM080800 18006KT P6SM SKC
     FM081400 VRB04KT P6SM FEW200
     FM081900 08007KT P6SM FEW200=

USA.gov is the U.S. government's official web portal to all federal, state and local government web resources and services.